Time;durP1;ratioP1;P1;durP2;ratioP2;P2;SDS_P1;SDS_P2;PMS_P1;PMS_P2;Temp;Humidity;BMP_temperature;BMP_pressure;BME280_temperature;BME280_humidity;BME280_pressure;Samples;Min_cycle;Max_cycle;Signal;HPM_P1;HPM_P2
2023/03/05 00:00:06;;;;;;;32.27;18.83;;;;;;;10.39;53.70;100542.22;4954938;28;20039;-77
2023/03/05 00:03:05;;;;;;;40.63;22.77;;;;;;;10.56;53.90;100536.81;4954018;28;20043;-78
2023/03/05 00:06:01;;;;;;;36.30;22.97;;;;;;;10.41;53.90;100540.78;4955751;28;20055;-78
2023/03/05 00:08:54;;;;;;;;;;;;;;;10.40;54.57;100538.38;4954180;28;20035;-78
2023/03/05 00:11:48;;;;;;;42.25;22.92;;;;;;;10.47;54.91;100533.25;4956801;28;20371;-77
2023/03/05 00:14:42;;;;;;;40.58;23.65;;;;;;;10.47;53.89;100538.69;4950920;29;20039;-78
2023/03/05 00:17:37;;;;;;;42.25;22.40;;;;;;;10.18;54.54;100534.66;4955764;28;20039;-77
2023/03/05 00:20:32;;;;;;;40.67;22.07;;;;;;;10.50;53.97;100532.63;4954311;28;20031;-78
2023/03/05 00:23:26;;;;;;;35.87;19.63;;;;;;;10.65;54.13;100529.44;4952141;28;20496;-77
2023/03/05 00:26:21;;;;;;;37.33;21.65;;;;;;;10.54;53.85;100533.59;4956757;28;20504;-77
2023/03/05 00:29:18;;;;;;;34.17;19.20;;;;;;;10.64;53.95;100533.28;4953499;28;20039;-78
2023/03/05 00:32:12;;;;;;;39.78;22.10;;;;;;;10.67;53.92;100532.63;4953367;29;20043;-77
2023/03/05 00:35:07;;;;;;;39.20;23.27;;;;;;;10.73;54.29;100534.88;4952118;28;20500;-78
2023/03/05 00:37:59;;;;;;;34.40;20.92;;;;;;;10.69;54.25;100531.19;4952499;28;20504;-77
2023/03/05 00:40:54;;;;;;;33.20;18.55;;;;;;;10.41;53.78;100529.91;4954197;28;20043;-78
2023/03/05 00:43:49;;;;;;;40.65;23.55;;;;;;;10.31;52.97;100529.41;4953412;28;20524;-77
2023/03/05 00:46:43;;;;;;;43.10;22.08;;;;;;;9.95;54.05;100529.63;4956718;28;20043;-78
2023/03/05 00:49:39;;;;;;;37.53;20.85;;;;;;;9.99;54.90;100522.44;4978554;28;20047;-78
2023/03/05 00:52:34;;;;;;;31.00;17.38;;;;;;;9.73;55.45;100520.44;4952852;28;20046;-78
2023/03/05 00:55:28;;;;;;;39.70;20.80;;;;;;;9.92;54.93;100528.31;4955614;28;20543;-78
2023/03/05 00:58:23;;;;;;;40.28;22.42;;;;;;;10.16;54.43;100528.72;4954653;28;20289;-79
2023/03/05 01:01:18;;;;;;;41.30;22.63;;;;;;;10.32;54.01;100525.56;4959027;28;20031;-77
2023/03/05 01:04:10;;;;;;;;;;;;;;;10.22;53.64;100516.59;4948567;29;20405;-79
2023/03/05 01:07:02;;;;;;;40.88;20.90;;;;;;;9.97;53.68;100520.03;4950093;28;19915;-78
2023/03/05 01:09:57;;;;;;;37.28;21.13;;;;;;;9.69;54.69;100518.69;4956214;28;20058;-78
2023/03/05 01:12:51;;;;;;;40.78;23.23;;;;;;;9.27;56.69;100511.94;4953440;28;20043;-77
2023/03/05 01:15:46;;;;;;;37.50;20.88;;;;;;;9.78;55.56;100512.16;4957986;28;20408;-77
2023/03/05 01:18:41;;;;;;;36.50;17.60;;;;;;;9.65;55.23;100517.72;4950598;28;20523;-77
2023/03/05 01:21:35;;;;;;;30.65;16.80;;;;;;;9.48;55.73;100515.72;4951812;28;20302;-77
2023/03/05 01:24:31;;;;;;;41.53;21.05;;;;;;;9.66;54.98;100505.72;4977839;28;20047;-78
2023/03/05 01:27:25;;;;;;;39.72;21.77;;;;;;;8.84;57.29;100508.94;4951576;28;20046;-78
2023/03/05 01:30:20;;;;;;;43.33;21.43;;;;;;;8.97;56.82;100503.47;4953186;28;20043;-77
2023/03/05 01:33:15;;;;;;;29.07;16.43;;;;;;;9.40;56.75;100505.59;4953019;29;20050;-77
2023/03/05 01:36:11;;;;;;;38.65;20.65;;;;;;;9.48;55.07;100501.34;4950971;29;20050;-77
2023/03/05 01:39:03;;;;;;;42.53;21.35;;;;;;;9.16;55.44;100500.53;4952531;29;20062;-77
2023/03/05 01:41:57;;;;;;;36.58;21.05;;;;;;;8.64;57.28;100487.75;4979824;28;20527;-78
2023/03/05 01:45:09;;;;;;;38.15;21.73;;;;;;;8.96;56.36;100492.91;4959132;28;20059;-77
2023/03/05 01:48:03;;;;;;;36.70;22.55;;;;;;;9.01;56.41;100479.22;4953123;29;20042;-77
2023/03/05 01:50:58;;;;;;;38.30;22.90;;;;;;;9.02;56.05;100478.94;4947426;29;20046;-78
2023/03/05 01:53:53;;;;;;;30.40;16.87;;;;;;;9.13;56.44;100479.47;4955950;29;20039;-78
2023/03/05 01:56:50;;;;;;;45.38;21.40;;;;;;;9.21;55.53;100484.13;4949704;29;20281;-78
2023/03/05 01:59:46;;;;;;;40.75;21.38;;;;;;;8.67;57.01;100481.72;4983164;28;20042;-78
2023/03/05 02:02:42;;;;;;;45.70;22.75;;;;;;;9.04;57.25;100489.44;4953535;29;20519;-78
2023/03/05 02:05:35;;;;;;;39.22;21.60;;;;;;;9.26;57.25;100489.41;4953054;28;20062;-75
2023/03/05 02:08:27;;;;;;;44.55;22.48;;;;;;;9.13;56.27;100482.19;4952849;28;20527;-75
2023/03/05 02:11:21;;;;;;;34.60;17.83;;;;;;;9.10;56.66;100484.69;4978216;28;20042;-75
2023/03/05 02:14:16;;;;;;;43.25;23.88;;;;;;;9.12;56.12;100485.19;4955689;28;20046;-75
2023/03/05 02:17:13;;;;;;;41.50;22.10;;;;;;;9.02;56.38;100481.66;4954608;29;20555;-75
2023/03/05 02:20:29;;;;;;;40.53;22.38;;;;;;;8.92;57.17;100472.97;4958537;28;20404;-76
2023/03/05 02:23:23;;;;;;;34.20;26.13;;;;;;;9.22;57.16;100479.50;4957946;28;20412;-75
2023/03/05 02:26:18;;;;;;;43.42;18.55;;;;;;;9.15;55.99;100474.53;4987102;28;20050;-75
2023/03/05 02:29:12;;;;;;;45.33;23.33;;;;;;;9.14;56.33;100459.38;4953440;28;20043;-75
2023/03/05 02:32:07;;;;;;;44.53;22.15;;;;;;;9.10;56.69;100468.44;4949348;28;20297;-76
2023/03/05 02:34:59;;;;;;;38.53;22.73;;;;;;;9.11;56.77;100462.69;4959447;28;20042;-77
2023/03/05 02:37:49;;;;;;;40.65;22.63;;;;;;;9.01;56.54;100466.47;4955099;28;20050;-76
2023/03/05 02:40:41;;;;;;;38.05;22.17;;;;;;;9.28;56.62;100459.28;4955664;28;20054;-76
2023/03/05 02:43:36;;;;;;;45.00;23.58;;;;;;;9.10;56.09;100463.00;4957553;28;20050;-75
2023/03/05 02:46:30;;;;;;;40.87;23.03;;;;;;;9.12;57.21;100461.59;4953959;28;20038;-75
2023/03/05 02:49:25;;;;;;;42.08;22.00;;;;;;;9.23;56.31;100454.78;4957343;28;20042;-75
2023/03/05 02:52:17;;;;;;;41.42;21.92;;;;;;;9.33;55.27;100456.41;4954337;28;20046;-75
2023/03/05 02:55:12;;;;;;;40.50;21.50;;;;;;;9.50;54.82;100452.97;4953650;28;20054;-74
2023/03/05 02:58:04;;;;;;;;;;;;;;;8.91;55.49;100457.78;4957663;28;20050;-74
2023/03/05 03:00:59;;;;;;;35.92;22.17;;;;;;;9.22;55.98;100461.31;4983383;28;19919;-75
2023/03/05 03:03:54;;;;;;;37.00;17.93;;;;;;;9.18;54.87;100454.94;4959496;28;20528;-75
2023/03/05 03:06:48;;;;;;;29.33;17.03;;;;;;;8.69;56.86;100452.38;4958381;28;20057;-75
2023/03/05 03:09:41;;;;;;;44.90;24.23;;;;;;;8.92;57.00;100443.13;4956034;28;20038;-75
2023/03/05 03:12:37;;;;;;;42.55;22.70;;;;;;;8.97;56.64;100451.13;4954383;28;20050;-75
2023/03/05 03:15:32;;;;;;;43.20;23.95;;;;;;;9.02;56.94;100445.59;4955565;28;20404;-75
2023/03/05 03:18:24;;;;;;;38.88;21.92;;;;;;;9.13;57.08;100452.34;4955047;28;20050;-75
2023/03/05 03:21:26;;;;;;;47.53;22.87;;;;;;;8.57;57.11;100451.06;4957860;28;20042;-75
2023/03/05 03:24:21;;;;;;;39.65;22.52;;;;;;;8.73;57.23;100447.97;4954900;28;20416;-75
2023/03/05 03:27:15;;;;;;;34.85;20.70;;;;;;;8.89;55.82;100447.25;4957297;28;20050;-75
2023/03/05 03:30:11;;;;;;;42.17;22.55;;;;;;;9.06;56.61;100440.31;4952304;28;20046;-75
2023/03/05 03:33:06;;;;;;;36.45;21.75;;;;;;;9.06;55.97;100441.13;4956345;28;20042;-75
2023/03/05 03:36:00;;;;;;;45.50;21.63;;;;;;;9.02;55.06;100438.25;4955935;28;20136;-76
2023/03/05 03:38:55;;;;;;;32.10;17.17;;;;;;;8.63;56.19;100434.66;4953611;28;20412;-75
2023/03/05 03:41:49;;;;;;;34.17;20.50;;;;;;;8.45;55.90;100433.72;4958461;28;20128;-76
2023/03/05 03:44:44;;;;;;;42.38;21.10;;;;;;;8.61;56.90;100428.75;4952171;28;20046;-75
2023/03/05 03:47:39;;;;;;;39.67;23.13;;;;;;;8.99;57.18;100429.91;4958702;28;20050;-75
2023/03/05 03:50:33;;;;;;;43.60;23.17;;;;;;;8.35;56.61;100423.94;4960756;28;20051;-75
2023/03/05 03:53:28;;;;;;;39.00;22.48;;;;;;;7.74;59.34;100427.19;4953494;28;20520;-75
2023/03/05 03:56:20;;;;;;;38.95;23.42;;;;;;;8.17;58.04;100427.59;4956698;28;20147;-76
2023/03/05 03:59:16;;;;;;;45.45;23.60;;;;;;;7.80;57.73;100434.09;4951442;29;20042;-75
2023/03/05 04:02:08;;;;;;;;;;;;;;;8.24;57.67;100425.25;4950075;29;20046;-75
2023/03/05 04:05:02;;;;;;;44.92;23.67;;;;;;;8.34;57.13;100430.47;4954462;28;20371;-75
2023/03/05 04:07:57;;;;;;;40.22;22.48;;;;;;;8.41;56.74;100430.03;4954807;28;20046;-75
2023/03/05 04:10:51;;;;;;;44.38;22.42;;;;;;;7.96;57.32;100432.66;4958387;28;20058;-76
2023/03/05 04:13:46;;;;;;;31.30;17.17;;;;;;;7.16;59.99;100430.50;4954509;28;20046;-75
2023/03/05 04:16:40;;;;;;;34.97;20.33;;;;;;;6.63;62.08;100429.31;4951441;28;20046;-76
2023/03/05 04:19:35;;;;;;;45.33;23.35;;;;;;;7.33;59.97;100424.50;4953788;28;20035;-75
2023/03/05 04:22:27;;;;;;;35.60;19.70;;;;;;;7.87;58.42;100420.97;4955096;28;20050;-75
2023/03/05 04:25:22;;;;;;;36.25;21.48;;;;;;;7.61;58.14;100409.88;4958861;28;20050;-75
2023/03/05 04:28:16;;;;;;;36.28;20.20;;;;;;;7.53;58.26;100421.41;4955378;28;20042;-75
2023/03/05 04:31:07;;;;;;;37.50;20.15;;;;;;;8.07;57.16;100417.00;4952831;28;20412;-74
2023/03/05 04:34:03;;;;;;;41.10;19.40;;;;;;;8.21;57.21;100416.94;4960474;28;20050;-74
2023/03/05 04:36:55;;;;;;;34.25;19.55;;;;;;;8.30;57.56;100407.00;4954388;28;20058;-74
2023/03/05 04:39:50;;;;;;;34.20;19.75;;;;;;;8.37;56.55;100412.81;4957368;28;20515;-74
2023/03/05 04:42:44;;;;;;;35.15;16.77;;;;;;;8.18;55.97;100402.09;4956579;28;20062;-74
2023/03/05 04:45:37;;;;;;;33.80;19.17;;;;;;;7.68;57.27;100407.53;4953635;28;20046;-74
2023/03/05 04:48:32;;;;;;;35.30;18.50;;;;;;;6.25;62.97;100402.38;4952817;28;20147;-74
2023/03/05 04:51:26;;;;;;;26.53;15.40;;;;;;;6.80;59.76;100411.47;4955116;28;20066;-74
2023/03/05 04:54:21;;;;;;;37.55;20.45;;;;;;;7.29;58.50;100404.59;4958710;28;20042;-75
2023/03/05 04:57:13;;;;;;;37.92;20.70;;;;;;;7.32;57.85;100406.66;4951510;28;20078;-75
2023/03/05 05:00:06;;;;;;;44.05;21.90;;;;;;;7.25;57.44;100400.88;4950924;28;20038;-75
2023/03/05 05:02:58;;;;;;;44.83;24.70;;;;;;;7.53;58.11;100405.16;4957500;28;20050;-76
2023/03/05 05:05:59;;;;;;;38.65;20.67;;;;;;;7.92;57.42;100399.19;4953124;28;20413;-76
2023/03/05 05:08:53;;;;;;;35.30;20.17;;;;;;;7.48;57.96;100402.56;4949367;28;20527;-75
2023/03/05 05:11:48;;;;;;;31.27;17.93;;;;;;;6.99;59.43;100405.16;4952691;28;20408;-76
2023/03/05 05:14:42;;;;;;;40.67;21.67;;;;;;;6.75;60.82;100400.75;4953081;28;20037;-75
2023/03/05 05:17:35;;;;;;;26.75;15.15;;;;;;;6.45;60.72;100409.34;4954414;28;20526;-75
2023/03/05 05:20:30;;;;;;;36.17;19.67;;;;;;;6.85;59.55;100402.47;4948436;29;20043;-76
2023/03/05 05:23:25;;;;;;;36.97;19.52;;;;;;;7.18;59.08;100403.97;4949380;29;20530;-75
2023/03/05 05:26:17;;;;;;;32.30;19.85;;;;;;;7.63;59.56;100404.94;4953759;29;20058;-75
2023/03/05 05:29:09;;;;;;;32.97;20.03;;;;;;;7.79;59.22;100401.91;4951764;29;20062;-75
2023/03/05 05:32:01;;;;;;;;;;;;;;;7.62;57.49;100408.75;4955493;29;20051;-76
2023/03/05 05:34:55;;;;;;;;;;;;;;;7.11;57.66;100408.19;4947271;29;19914;-76
2023/03/05 05:37:47;;;;;;;;;;;;;;;7.35;58.16;100402.59;4953043;28;19919;-76
2023/03/05 05:40:39;;;;;;;;;;;;;;;7.39;57.90;100404.38;4948034;29;19914;-77
2023/03/05 05:43:31;;;;;;;;;;;;;;;7.57;57.42;100408.88;4945005;29;19915;-76
2023/03/05 05:46:23;;;;;;;;;;;;;;;7.47;57.38;100408.25;4953309;29;20291;-77
2023/03/05 05:49:12;;;;;;;;;;;;;;;7.57;57.41;100408.88;4946763;29;19914;-76
2023/03/05 05:52:04;;;;;;;;;;;;;;;7.48;57.39;100413.38;4948982;28;19914;-76
2023/03/05 05:54:56;;;;;;;;;;;;;;;7.28;58.29;100416.50;4947242;28;20384;-76
2023/03/05 05:57:43;;;;;;;;;;;;;;;7.35;57.71;100405.28;4953959;28;19930;-76
2023/03/05 06:00:35;;;;;;;;;;;;;;;7.33;57.94;100419.09;4952244;28;19915;-76
2023/03/05 06:03:27;;;;;;;;;;;;;;;7.38;58.37;100421.72;4958669;28;20319;-76
2023/03/05 06:06:20;;;;;;;;;;;;;;;7.36;57.27;100425.81;4950959;28;19914;-76
2023/03/05 06:09:12;;;;;;;;;;;;;;;7.45;57.93;100419.41;4957418;28;20543;-74
2023/03/05 06:12:04;;;;;;;;;;;;;;;7.64;57.75;100425.50;4953875;28;20315;-75
2023/03/05 06:14:56;;;;;;;;;;;;;;;7.68;57.21;100429.19;4958558;28;19914;-74
2023/03/05 06:17:48;;;;;;;;;;;;;;;7.66;57.89;100430.63;4960256;28;19914;-75
2023/03/05 06:20:40;;;;;;;;;;;;;;;7.71;57.39;100438.63;4960119;28;20107;-75
2023/03/05 06:23:32;;;;;;;;;;;;;;;7.72;57.33;100437.50;4955137;28;20380;-75
2023/03/05 06:26:24;;;;;;;;;;;;;;;7.88;57.43;100443.41;4957557;28;19914;-75
2023/03/05 06:29:14;;;;;;;;;;;;;;;7.88;56.36;100448.81;4951284;29;19914;-75
2023/03/05 06:32:06;;;;;;;;;;;;;;;7.79;56.67;100453.34;4958646;28;19918;-75
2023/03/05 06:34:58;;;;;;;;;;;;;;;7.84;56.37;100453.22;4959820;28;19918;-75
2023/03/05 06:37:50;;;;;;;;;;;;;;;8.21;54.55;100454.88;4957204;28;20379;-75
2023/03/05 06:40:42;;;;;;;;;;;;;;;7.63;55.52;100458.25;4957019;28;19914;-75
2023/03/05 06:43:37;;;;;;;;;;;;;;;7.63;57.22;100461.78;4959992;28;19914;-75
2023/03/05 06:46:28;;;;;;;;;;;;;;;7.63;56.79;100450.94;4952958;28;19914;-74
2023/03/05 06:49:20;;;;;;;;;;;;;;;7.80;57.04;100453.03;4955951;28;19914;-75
2023/03/05 06:52:12;;;;;;;;;;;;;;;8.03;56.62;100452.00;4955357;28;19914;-75
2023/03/05 06:55:02;;;;;;;;;;;;;;;8.08;56.79;100464.63;4957103;28;20399;-75
2023/03/05 06:57:54;;;;;;;;;;;;;;;8.18;57.01;100463.63;4956252;28;19914;-75
2023/03/05 07:00:47;;;;;;;;;;;;;;;7.36;59.41;100459.09;4958991;28;20387;-75
2023/03/05 07:03:39;;;;;;;;;;;;;;;7.68;58.96;100464.38;4957991;28;19914;-75
2023/03/05 07:06:32;;;;;;;;;;;;;;;7.94;58.40;100463.84;4956230;28;19914;-75
2023/03/05 07:09:24;;;;;;;;;;;;;;;7.57;58.97;100465.69;4954601;28;19915;-75
2023/03/05 07:12:14;;;;;;;;;;;;;;;7.00;62.01;100460.84;4960242;28;19914;-75
2023/03/05 07:15:06;;;;;;;;;;;;;;;6.93;63.12;100466.63;4958668;28;19914;-75
2023/03/05 07:17:55;;;;;;;;;;;;;;;7.27;61.34;100461.66;4948739;28;19919;-75
2023/03/05 07:20:45;;;;;;;;;;;;;;;7.06;62.34;100451.53;4939863;29;19926;-75
2023/03/05 07:23:37;;;;;;;;;;;;;;;7.74;61.02;100460.47;4937276;28;19915;-75
2023/03/05 07:26:25;;;;;;;;;;;;;;;8.27;60.28;100451.75;4954215;28;19914;-75
2023/03/05 07:29:17;;;;;;;;;;;;;;;8.55;59.87;100458.69;4931759;29;19915;-75
2023/03/05 07:32:09;;;;;;;;;;;;;;;8.76;59.69;100447.34;4918294;29;20376;-75
2023/03/05 07:35:01;;;;;;;;;;;;;;;8.94;59.48;100454.47;4922018;29;20292;-75
2023/03/05 07:37:53;;;;;;;;;;;;;;;9.00;60.17;100462.16;4919939;29;19915;-75
2023/03/05 07:40:45;;;;;;;;;;;;;;;9.02;60.83;100456.44;4919146;29;19914;-74
2023/03/05 07:43:37;;;;;;;;;;;;;;;9.17;60.36;100453.31;4941665;29;19914;-74
2023/03/05 07:46:26;;;;;;;;;;;;;;;9.23;60.77;100462.94;4944235;28;19915;-75
2023/03/05 07:49:16;;;;;;;;;;;;;;;9.28;60.34;100456.56;4934151;29;19918;-75
2023/03/05 07:52:08;;;;;;;;;;;;;;;9.33;60.17;100470.00;4930391;29;19923;-75
2023/03/05 07:55:00;;;;;;;;;;;;;;;9.42;59.31;100454.53;4922830;29;19915;-75
2023/03/05 07:57:52;;;;;;;;;;;;;;;9.12;60.62;100453.44;4932701;29;19918;-79
2023/03/05 08:00:41;;;;;;;;;;;;;;;8.70;61.63;100454.00;4945168;28;19922;-77
2023/03/05 08:03:33;;;;;;;;;;;;;;;8.88;59.83;100453.81;4937883;28;19918;-79
2023/03/05 08:06:25;;;;;;;;;;;;;;;9.51;58.21;100455.38;4946725;28;19915;-78
2023/03/05 08:09:15;;;;;;;;;;;;;;;9.44;58.33;100450.41;4940525;29;20118;-78
2023/03/05 08:12:07;;;;;;;;;;;;;;;9.27;59.64;100446.81;4943707;28;19918;-78
2023/03/05 08:14:59;;;;;;;;;;;;;;;8.74;61.46;100444.94;4941071;29;19915;-78
2023/03/05 08:17:51;;;;;;;;;;;;;;;9.41;59.44;100442.88;4945441;28;20307;-78
2023/03/05 08:20:36;;;;;;;;;;;;;;;9.30;60.98;100440.75;4964616;28;20388;-78
2023/03/05 08:23:25;;;;;;;;;;;;;;;9.34;60.44;100439.84;4960019;28;19918;-78
2023/03/05 08:26:16;;;;;;;;;;;;;;;9.23;60.79;100429.56;4956430;28;19915;-78
2023/03/05 08:29:03;;;;;;;;;;;;;;;9.05;62.04;100431.38;4949175;29;19914;-78
2023/03/05 08:31:52;;;;;;;;;;;;;;;9.34;61.58;100436.31;4955681;28;19918;-78
2023/03/05 08:34:42;;;;;;;;;;;;;;;9.14;62.34;100432.25;4955573;29;19915;-80
2023/03/05 08:37:34;;;;;;;;;;;;;;;9.47;61.14;100434.59;4967370;28;19914;-81
2023/03/05 08:40:23;;;;;;;;;;;;;;;9.65;59.82;100428.88;4964729;28;19915;-80
2023/03/05 08:43:15;;;;;;;;;;;;;;;9.98;58.94;100426.56;4963586;28;19922;-80
2023/03/05 08:46:04;;;;;;;;;;;;;;;9.92;60.14;100427.84;4971653;28;19914;-81
2023/03/05 08:48:54;;;;;;;;;;;;;;;9.89;61.03;100433.91;4956253;28;19914;-80
2023/03/05 08:51:46;;;;;;;;;;;;;;;10.06;59.98;100435.81;4963956;28;19918;-80
2023/03/05 08:54:33;;;;;;;;;;;;;;;10.06;60.04;100433.91;4963277;28;19914;-80
2023/03/05 08:57:25;;;;;;;;;;;;;;;10.34;60.00;100434.44;4959042;28;19914;-79
2023/03/05 09:00:17;;;;;;;;;;;;;;;11.11;57.29;100439.75;4971427;28;20299;-79
2023/03/05 09:03:04;;;;;;;;;;;;;;;11.35;56.48;100441.09;4970927;28;19914;-79
2023/03/05 09:05:51;;;;;;;;;;;;;;;11.64;56.16;100446.56;4969238;28;19922;-79
2023/03/05 09:09:00;;;;;;;;;;;;;;;11.56;55.89;100441.97;4966255;28;19914;-78
2023/03/05 09:11:50;;;;;;;;;;;;;;;11.86;54.64;100438.13;4951054;28;20299;-77
2023/03/05 09:14:42;;;;;;;;;;;;;;;11.78;54.50;100436.28;4956530;28;19914;-77
2023/03/05 09:17:34;;;;;;;;;;;;;;;11.82;54.68;100445.38;4954769;28;19914;-77
2023/03/05 09:20:26;;;;;;;;;;;;;;;11.58;55.90;100442.41;4952200;29;19914;-77
2023/03/05 09:23:18;;;;;;;;;;;;;;;12.04;54.66;100441.53;4957700;29;19922;-76
2023/03/05 09:26:10;;;;;;;;;;;;;;;12.02;54.67;100429.38;4956453;29;19918;-78
2023/03/05 09:29:02;;;;;;;;;;;;;;;12.07;54.71;100429.19;4957469;28;20299;-78
2023/03/05 09:31:56;;;;;;;;;;;;;;;11.99;55.88;100431.63;4959820;28;19918;-84
2023/03/05 09:34:48;;;;;;;;;;;;;;;12.08;55.22;100430.78;4965560;28;19918;-80
2023/03/05 09:37:37;;;;;;;;;;;;;;;11.96;54.97;100421.41;4964287;28;19923;-81
2023/03/05 09:40:31;;;;;;;;;;;;;;;12.12;54.46;100423.53;4959512;28;19918;-78
2023/03/05 09:43:31;;;;;;;;;;;;;;;12.25;53.22;100417.81;4962465;28;19918;-80
2023/03/05 09:46:35;;;;;;;;;;;;;;;12.39;52.71;100412.09;4959090;28;19918;-78
2023/03/05 09:49:27;;;;;;;;;;;;;;;12.38;53.43;100410.50;4955971;28;19914;-77
2023/03/05 09:52:28;;;;;;;;;;;;;;;11.98;55.48;100402.81;4960396;28;19918;-78
2023/03/05 09:55:39;;;;;;;;;;;;;;;12.37;54.09;100395.25;4956096;28;19914;-78
2023/03/05 09:58:34;;;;;;;;;;;;;;;12.13;54.52;100400.59;4950198;28;20383;-77
2023/03/05 10:01:29;;;;;;;;;;;;;;;12.71;54.08;100397.63;4960049;28;19918;-77
2023/03/05 10:04:22;;;;;;;;;;;;;;;12.88;53.13;100395.88;4962566;28;19918;-79
2023/03/05 10:07:43;;;;;;;;;;;;;;;12.79;53.68;100398.69;4964180;28;20376;-79
2023/03/05 10:10:40;;;;;;;;;;;;;;;12.86;53.73;100394.25;4938549;28;19919;-77
2023/03/05 10:13:29;;;;;;;;;;;;;;;13.31;52.20;100403.59;4960603;28;19915;-78
2023/03/05 10:16:45;;;;;;;;;;;;;;;13.00;52.77;100398.63;4961789;28;19915;-78
2023/03/05 10:19:45;;;;;;;;;;;;;;;12.89;53.19;100386.53;4960549;28;19915;-79
2023/03/05 10:22:43;;;;;;;;;;;;;;;13.53;52.26;100390.25;4959681;28;19922;-78
2023/03/05 10:25:53;;;;;;;;;;;;;;;13.58;50.88;100392.75;4961082;28;19914;-77
2023/03/05 10:29:02;;;;;;;;;;;;;;;13.77;49.48;100385.88;4959448;28;19915;-78
2023/03/05 10:32:00;;;;;;;;;;;;;;;13.83;49.34;100377.09;4959099;28;19918;-78
2023/03/05 10:35:00;;;;;;;;;;;;;;;14.15;48.58;100375.31;4962978;28;20311;-78
2023/03/05 10:37:51;;;;;;;;;;;;;;;13.65;49.00;100373.06;4958161;28;19922;-79
2023/03/05 10:40:50;;;;;;;;;;;;;;;14.23;48.55;100366.16;4960836;28;19914;-78
2023/03/05 10:43:45;;;;;;;;;;;;;;;13.91;50.03;100367.19;4957039;28;19929;-79
2023/03/05 10:46:39;;;;;;;;;;;;;;;14.39;48.44;100361.56;4960227;28;19914;-79
2023/03/05 10:49:31;;;;;;;;;;;;;;;14.57;48.18;100362.06;4958873;28;19914;-80
2023/03/05 10:52:22;;;;;;;;;;;;;;;14.55;48.17;100365.13;4959622;28;19918;-79
2023/03/05 10:55:15;;;;;;;;;;;;;;;15.21;46.36;100356.25;4960199;28;19915;-79
2023/03/05 10:58:09;;;;;;;;;;;;;;;15.78;44.82;100343.88;4959829;28;19922;-78
2023/03/05 11:01:02;;;;;;;;;;;;;;;15.56;45.41;100359.06;4963368;28;19918;-80
2023/03/05 11:03:54;;;;;;;;;;;;;;;15.14;46.92;100347.84;4957467;28;19914;-78
2023/03/05 11:06:49;;;;;;;;;;;;;;;14.86;47.08;100339.75;4956204;28;20295;-80
2023/03/05 11:09:41;;;;;;;;;;;;;;;14.41;47.94;100337.41;4963757;28;19914;-80
2023/03/05 11:12:36;;;;;;;;;;;;;;;14.94;46.08;100332.50;4956658;28;19919;-78
2023/03/05 11:15:28;;;;;;;;;;;;;;;15.45;44.87;100329.78;4936835;29;19918;-78
2023/03/05 11:18:23;;;;;;;;;;;;;;;16.02;44.28;100332.63;4939151;29;19914;-78
2023/03/05 11:21:19;;;;;;;;;;;;;;;16.47;44.07;100325.66;4938270;29;20376;-78
2023/03/05 11:24:17;;;;;;;;;;;;;;;16.56;42.62;100317.97;4942011;29;19914;-78
2023/03/05 11:27:23;;;;;;;;;;;;;;;16.78;42.86;100319.19;4939538;29;20304;-78
2023/03/05 11:30:48;;;;;;;;;;;;;;;16.53;42.73;100302.25;4950345;28;20363;-78
2023/03/05 11:33:39;;;;;;;;;;;;;;;16.67;43.02;100310.75;4934575;29;19926;-78
2023/03/05 11:36:32;;;;;;;;;;;;;;;17.10;41.53;100304.03;4961179;28;19914;-78
2023/03/05 11:39:23;;;;;;;;;;;;;;;17.15;39.89;100302.91;4959282;28;19922;-78
2023/03/05 11:42:18;;;;;;;;;;;;;;;17.39;39.53;100292.28;4957147;28;19914;-78
2023/03/05 11:45:15;;;;;;;;;;;;;;;17.68;39.38;100284.44;4961029;28;19914;-78
2023/03/05 11:48:17;;;;;;;;;;;;;;;18.91;37.11;100278.66;4964669;28;19914;-78
2023/03/05 11:51:14;;;;;;;;;;;;;;;22.94;30.37;100272.31;4946713;28;19918;-78
2023/03/05 11:54:08;;;;;;;;;;;;;;;26.26;25.83;100280.31;4965072;28;19914;-78
2023/03/05 11:56:58;;;;;;;;;;;;;;;29.51;21.51;100279.75;4969508;28;20267;-78
2023/03/05 11:59:50;;;;;;;;;;;;;;;30.47;19.55;100280.50;4975629;28;19918;-79
2023/03/05 12:02:42;;;;;;;;;;;;;;;30.08;19.78;100278.41;4965243;28;19915;-78
2023/03/05 12:05:35;;;;;;;;;;;;;;;29.48;20.63;100266.63;4969867;28;19918;-79
2023/03/05 12:08:32;;;;;;;;;;;;;;;29.53;19.84;100264.03;4970497;28;20058;-79
2023/03/05 12:11:31;;;;;;;;;;;;;;;28.22;20.82;100248.81;4964815;28;19934;-79
2023/03/05 12:14:23;;;;;;;;;;;;;;;27.53;21.21;100242.09;4976362;28;19914;-78
2023/03/05 12:17:26;;;;;;;;;;;;;;;29.27;19.94;100243.72;4957276;28;19914;-79
2023/03/05 12:20:14;;;;;;;;;;;;;;;28.12;21.04;100232.38;4965821;28;19914;-78
2023/03/05 12:23:06;;;;;;;;;;;;;;;28.75;20.62;100227.53;4969200;28;19915;-78
2023/03/05 12:25:58;;;;;;;;;;;;;;;28.52;20.54;100222.28;4954340;29;19918;-79
2023/03/05 12:28:50;;;;;;;;;;;;;;;28.85;20.54;100226.38;4961694;28;20295;-79
2023/03/05 12:32:01;;;;;;;;;;;;;;;30.16;19.27;100215.97;4962352;28;19918;-79
2023/03/05 12:34:57;;;;;;;;;;;;;;;28.12;20.70;100210.00;4973624;28;19919;-79
2023/03/05 12:37:49;;;;;;;;;;;;;;;28.90;20.04;100202.66;4974698;28;20424;-79
2023/03/05 12:40:41;;;;;;;;;;;;;;;30.31;19.02;100204.97;4971918;28;19914;-79
2023/03/05 12:43:35;;;;;;;;;;;;;;;29.39;19.99;100196.53;4967944;28;19914;-79
2023/03/05 12:46:28;;;;;;;;;;;;;;;28.60;20.32;100186.47;4962072;28;19914;-79
2023/03/05 12:49:27;;;;;;;;;;;;;;;28.36;20.77;100181.25;4965521;28;19921;-79
2023/03/05 12:52:22;;;;;;;;;;;;;;;28.81;20.41;100178.13;4963337;28;20375;-79
2023/03/05 12:55:19;;;;;;;;;;;;;;;28.67;20.49;100181.41;4960184;28;19914;-79
2023/03/05 12:58:24;;;;;;;;;;;;;;;29.41;19.67;100175.19;4968513;28;19914;-79
2023/03/05 13:01:22;;;;;;;;;;;;;;;29.16;19.89;100175.31;4956138;29;19914;-79
2023/03/05 13:04:15;;;;;;;;;;;;;;;29.19;19.77;100174.41;4964589;28;19914;-79
2023/03/05 13:07:14;;;;;;;;;;;;;;;29.89;19.16;100172.97;4955216;28;19915;-79
2023/03/05 13:10:04;;;;;;;;;;;;;;;29.60;19.17;100162.09;4958527;28;19922;-79
2023/03/05 13:12:57;;;;;;;;;;;;;;;28.00;20.76;100158.41;4962977;28;19926;-79
2023/03/05 13:15:50;;;;;;;;;;;;;;;27.74;21.60;100154.03;4960864;28;19919;-79
2023/03/05 13:18:39;;;;;;;;;;;;;;;30.75;18.36;100159.84;4961526;28;20394;-79
2023/03/05 13:21:30;;;;;;;;;;;;;;;31.75;17.73;100152.09;4956395;29;19915;-79
2023/03/05 13:24:22;;;;;;;;;;;;;;;30.73;17.93;100148.31;4956895;29;19914;-79
2023/03/05 13:27:41;;;;;;;;;;;;;;;29.42;19.07;100140.34;4961847;29;19918;-79
2023/03/05 13:30:33;;;;;;;;;;;;;;;27.54;21.64;100137.50;4954111;29;19915;-79
2023/03/05 13:33:40;;;;;;;;;;;;;;;26.36;22.66;100131.50;4962923;29;19915;-79
2023/03/05 13:36:32;;;;;;;;;;;;;;;26.68;22.09;100125.13;4960477;29;19914;-79
2023/03/05 13:39:26;;;;;;;;;;;;;;;28.22;20.59;100127.78;4963252;28;19923;-79
2023/03/05 13:42:36;;;;;;;;;;;;;;;26.35;22.67;100126.41;4962038;29;19918;-79
2023/03/05 13:45:32;;;;;;;;;;;;;;;25.24;24.09;100120.94;4962830;29;20303;-79
2023/03/05 13:48:21;;;;;;;;;;;;;;;25.12;24.91;100122.38;4959754;28;19918;-79
2023/03/05 13:51:13;;;;;;;;;;;;;;;25.77;23.36;100117.81;4959704;29;20566;-80
2023/03/05 13:54:05;;;;;;;;;;;;;;;26.30;23.08;100107.41;4956584;29;19922;-80
2023/03/05 13:56:58;;;;;;;;;;;;;;;28.34;20.69;100115.81;4960942;29;19914;-79
2023/03/05 13:59:53;;;;;;;;;;;;;;;25.07;24.31;100112.53;4957402;28;19917;-78
2023/03/05 14:02:45;;;;;;;;;;;;;;;26.40;22.65;100106.34;4957421;29;19915;-79
2023/03/05 14:05:36;;;;;;;;;;;;;;;26.42;23.27;100103.09;4964863;29;19914;-79
2023/03/05 14:08:29;;;;;;;;;;;;;;;25.79;23.78;100109.03;4969037;29;19915;-79
2023/03/05 14:11:22;;;;;;;;;;;;;;;25.06;24.65;100096.25;4973476;28;19919;-79
2023/03/05 14:14:17;;;;;;;;;;;;;;;25.45;24.05;100093.41;4973460;29;19914;-78
2023/03/05 14:17:23;;;;;;;;;;;;;;;23.00;27.52;100082.88;4978162;28;19946;-78